Eborense — CSMP — position and weather

sailwx.info

Track history (hours):
 
Tides and Currents Weather Stations Pressure Air Temp Water Temp Dewpoint Dewpoint Depression Visibility Wind Speed Wind Dir Waves Ship Positions

Eborense

Last reported at 2015-Apr-18 21:06 UTC. Time now 2015-Apr-19 04:36 UTC.
Position N 38°41' W 009°12'.

Length 49 m; draft 1.2 m.

Type: Passenger vessel. MMSI: 263701750.

Date/timePositionNaut miles runAvg speedWind from/ knotsBaromVisibWave heightAir tempDewpointWater temp
2015-Apr-18 21:06N 38°41' W 009°12'1 1.4
2015-Apr-18 20:33N 38°41' W 009°12'2 1.6
2015-Apr-18 19:30N 38°40' W 009°14'0 0.0
2015-Apr-18 18:30N 38°40' W 009°14'2 1.7
2015-Apr-18 17:33N 38°41' W 009°12'0 0.3
2015-Apr-18 16:33N 38°42' W 009°12'0 0.1
2015-Apr-18 15:32N 38°42' W 009°12'  
2015-Apr-14 21:33N 38°41' W 009°12'1 1.1
2015-Apr-14 20:30N 38°40' W 009°14'0 0.1
2015-Apr-14 19:33N 38°41' W 009°14'2 1.7
2015-Apr-14 18:33N 38°42' W 009°12'0 0.2
2015-Apr-14 17:32N 38°42' W 009°12'0 0.1
2015-Apr-14 16:30N 38°42' W 009°12'0 0.0
2015-Apr-14 15:30N 38°42' W 009°12'0 0.0
2015-Apr-14 14:34N 38°42' W 009°12'1 1.0
2015-Apr-14 13:33N 38°41' W 009°12'1 0.9
2015-Apr-14 12:25N 38°42' W 009°12'0 0.0
2015-Apr-14 11:32N 38°42' W 009°12'0 0.0
2015-Apr-14 10:28N 38°42' W 009°12'2 2.1
2015-Apr-14 09:32N 38°40' W 009°14'0 0.0
2015-Apr-14 08:30N 38°40' W 009°14'0 0.1
2015-Apr-14 07:32N 38°41' W 009°14'0 0.1
2015-Apr-14 06:32N 38°41' W 009°14'1 0.9
2015-Apr-14 05:33N 38°41' W 009°13'0 0.0
2015-Apr-13 21:33N 38°41' W 009°12'1 1.2
2015-Apr-13 20:33N 38°41' W 009°14'0 0.3
2015-Apr-13 19:18N 38°41' W 009°14'2 2.7
2015-Apr-13 18:32N 38°41' W 009°12'0 0.2
2015-Apr-13 17:31N 38°42' W 009°12'1 0.8
2015-Apr-13 16:31N 38°41' W 009°12'2 2.6
2015-Apr-13 15:33N 38°41' W 009°09'0 0.2
2015-Apr-13 14:33N 38°41' W 009°09'0 0.0
2015-Apr-13 13:33N 38°41' W 009°09'0 0.1
2015-Apr-13 12:33N 38°41' W 009°09'0 0.0
2015-Apr-13 10:12N 38°41' W 009°09'0 0.0
2015-Apr-13 09:34N 38°41' W 009°09'0 0.1
2015-Apr-13 08:33N 38°41' W 009°09'0 0.0
2015-Apr-13 07:33N 38°41' W 009°09'4 3.9
2015-Apr-13 06:33N 38°41' W 009°14'1 1.0
2015-Apr-13 05:32N 38°41' W 009°12'0 0.0
2015-Apr-13 04:31N 38°41' W 009°12'  
2015-Apr-09 21:32N 38°41' W 009°12'1 1.0
2015-Apr-09 20:33N 38°41' W 009°14'0 0.1
2015-Apr-09 19:33N 38°41' W 009°14'2 1.8
2015-Apr-09 18:32N 38°42' W 009°12'0 0.1
2015-Apr-09 17:32N 38°42' W 009°12'0 0.1
2015-Apr-09 16:33N 38°42' W 009°12'0 0.2
2015-Apr-09 15:32N 38°42' W 009°12'0 0.1
2015-Apr-09 14:32N 38°42' W 009°12'1 0.1
2015-Apr-08 21:31N 38°41' W 009°12'  
Track history (hours):
 
Tides and Currents Weather Stations Pressure Air Temp Water Temp Dewpoint Dewpoint Depression Visibility Wind Speed Wind Dir Waves Ship Positions

Eborense

Last reported at 2015-Apr-18 21:06 UTC. Time now 2015-Apr-19 04:36 UTC.
Position N 38°41' W 009°12'.

Length 49 m; draft 1.2 m.

Type: Passenger vessel. MMSI: 263701750.

Date/timePositionNaut miles runAvg speedWind from/ knotsBaromVisibWave heightAir tempDewpointWater temp
2015-Apr-18 21:06N 38°41' W 009°12'1 1.4
2015-Apr-18 20:33N 38°41' W 009°12'2 1.6
2015-Apr-18 19:30N 38°40' W 009°14'0 0.0
2015-Apr-18 18:30N 38°40' W 009°14'2 1.7
2015-Apr-18 17:33N 38°41' W 009°12'0 0.3
2015-Apr-18 16:33N 38°42' W 009°12'0 0.1
2015-Apr-18 15:32N 38°42' W 009°12'  
2015-Apr-14 21:33N 38°41' W 009°12'1 1.1
2015-Apr-14 20:30N 38°40' W 009°14'0 0.1
2015-Apr-14 19:33N 38°41' W 009°14'2 1.7
2015-Apr-14 18:33N 38°42' W 009°12'0 0.2
2015-Apr-14 17:32N 38°42' W 009°12'0 0.1
2015-Apr-14 16:30N 38°42' W 009°12'0 0.0
2015-Apr-14 15:30N 38°42' W 009°12'0 0.0
2015-Apr-14 14:34N 38°42' W 009°12'1 1.0
2015-Apr-14 13:33N 38°41' W 009°12'1 0.9
2015-Apr-14 12:25N 38°42' W 009°12'0 0.0
2015-Apr-14 11:32N 38°42' W 009°12'0 0.0
2015-Apr-14 10:28N 38°42' W 009°12'2 2.1
2015-Apr-14 09:32N 38°40' W 009°14'0 0.0
2015-Apr-14 08:30N 38°40' W 009°14'0 0.1
2015-Apr-14 07:32N 38°41' W 009°14'0 0.1
2015-Apr-14 06:32N 38°41' W 009°14'1 0.9
2015-Apr-14 05:33N 38°41' W 009°13'0 0.0
2015-Apr-13 21:33N 38°41' W 009°12'1 1.2
2015-Apr-13 20:33N 38°41' W 009°14'0 0.3
2015-Apr-13 19:18N 38°41' W 009°14'2 2.7
2015-Apr-13 18:32N 38°41' W 009°12'0 0.2
2015-Apr-13 17:31N 38°42' W 009°12'1 0.8
2015-Apr-13 16:31N 38°41' W 009°12'2 2.6
2015-Apr-13 15:33N 38°41' W 009°09'0 0.2
2015-Apr-13 14:33N 38°41' W 009°09'0 0.0
2015-Apr-13 13:33N 38°41' W 009°09'0 0.1
2015-Apr-13 12:33N 38°41' W 009°09'0 0.0
2015-Apr-13 10:12N 38°41' W 009°09'0 0.0
2015-Apr-13 09:34N 38°41' W 009°09'0 0.1
2015-Apr-13 08:33N 38°41' W 009°09'0 0.0
2015-Apr-13 07:33N 38°41' W 009°09'4 3.9
2015-Apr-13 06:33N 38°41' W 009°14'1 1.0
2015-Apr-13 05:32N 38°41' W 009°12'0 0.0
2015-Apr-13 04:31N 38°41' W 009°12'  
2015-Apr-09 21:32N 38°41' W 009°12'1 1.0
2015-Apr-09 20:33N 38°41' W 009°14'0 0.1
2015-Apr-09 19:33N 38°41' W 009°14'2 1.8
2015-Apr-09 18:32N 38°42' W 009°12'0 0.1
2015-Apr-09 17:32N 38°42' W 009°12'0 0.1
2015-Apr-09 16:33N 38°42' W 009°12'0 0.2
2015-Apr-09 15:32N 38°42' W 009°12'0 0.1
2015-Apr-09 14:32N 38°42' W 009°12'1 0.1
2015-Apr-08 21:31N 38°41' W 009°12'  

Dump ship's entire track history